createdAt,value
2022-11-16T00:13:08.801Z,11.83
2022-11-16T00:42:19.252Z,11.78
2022-11-16T01:11:29.149Z,11.79
2022-11-16T01:40:40.772Z,11.77
2022-11-16T02:09:48.770Z,11.74
2022-11-16T02:39:00.215Z,11.89
2022-11-16T03:08:09.791Z,11.98
2022-11-16T03:37:15.366Z,11.93
2022-11-16T04:06:21.717Z,11.93
2022-11-16T04:35:31.773Z,12.23
2022-11-16T05:04:37.733Z,12.33
2022-11-16T05:33:45.084Z,12.22
2022-11-16T06:02:54.856Z,12.19
2022-11-16T06:31:54.827Z,12.05
2022-11-16T07:00:48.378Z,11.93
2022-11-16T07:29:32.710Z,11.92
2022-11-16T07:58:44.512Z,12.18
2022-11-16T08:27:41.555Z,12.55
2022-11-16T08:56:52.434Z,13.8
2022-11-16T09:25:54.292Z,13.8
2022-11-16T09:55:04.459Z,15.13
2022-11-16T10:24:08.926Z,15.69
2022-11-16T10:53:13.001Z,16.09
2022-11-16T11:22:22.106Z,17.33
2022-11-16T11:51:26.813Z,16.94
2022-11-16T12:20:38.109Z,17.65
2022-11-16T12:49:38.587Z,17.04
2022-11-16T13:18:46.350Z,17.57
2022-11-16T13:47:46.702Z,16.73
2022-11-16T14:16:51.299Z,17.39
2022-11-16T14:45:54.503Z,17.59
2022-11-16T15:14:52.776Z,16.79
2022-11-16T15:44:13.842Z,15.89
2022-11-16T16:12:20.555Z,15.08
2022-11-16T16:41:24.960Z,14.48
2022-11-16T17:09:49.676Z,14.04
2022-11-16T17:38:47.864Z,13.58
2022-11-16T18:07:46.499Z,13.13
2022-11-16T18:36:49.630Z,12.71
2022-11-16T19:05:51.455Z,12.39
2022-11-16T19:34:52.589Z,12.03
2022-11-16T20:03:53.394Z,11.72
2022-11-16T20:32:55.534Z,11.64
2022-11-16T21:01:59.249Z,11.44
2022-11-16T21:30:57.902Z,11.29
2022-11-16T22:00:01.222Z,11.3
2022-11-16T22:29:05.425Z,11.35
2022-11-16T22:58:09.369Z,11.73
2022-11-16T23:27:15.853Z,12.01
2022-11-16T23:56:25.226Z,11.92
